sensor_id;sensor_type;location;lat;lon;timestamp;pressure;altitude;pressure_sealevel;temperature;humidity
17525;BME280;40431;52.198;9.902;2022-08-21T00:02:21;100748.19;;;19.21;71.95
17525;BME280;40431;52.198;9.902;2022-08-21T00:04:48;100753.66;;;19.01;73.46
17525;BME280;40431;52.198;9.902;2022-08-21T00:07:16;100746.72;;;18.97;74.38
17525;BME280;40431;52.198;9.902;2022-08-21T00:09:42;100751.97;;;19.00;75.26
17525;BME280;40431;52.198;9.902;2022-08-21T00:12:08;100750.66;;;19.04;75.66
17525;BME280;40431;52.198;9.902;2022-08-21T00:14:37;100744.13;;;19.05;75.88
17525;BME280;40431;52.198;9.902;2022-08-21T00:17:04;100734.16;;;19.04;75.53
17525;BME280;40431;52.198;9.902;2022-08-21T00:19:31;100737.47;;;19.08;76.78
17525;BME280;40431;52.198;9.902;2022-08-21T00:21:58;100739.22;;;19.09;76.91
17525;BME280;40431;52.198;9.902;2022-08-21T00:24:25;100744.72;;;19.09;77.29
17525;BME280;40431;52.198;9.902;2022-08-21T00:26:52;100741.25;;;19.07;76.97
17525;BME280;40431;52.198;9.902;2022-08-21T00:29:18;100737.94;;;19.03;77.07
17525;BME280;40431;52.198;9.902;2022-08-21T00:31:46;100738.22;;;19.00;77.08
17525;BME280;40431;52.198;9.902;2022-08-21T00:34:13;100746.19;;;18.93;76.43
17525;BME280;40431;52.198;9.902;2022-08-21T00:36:40;100740.09;;;18.90;77.66
17525;BME280;40431;52.198;9.902;2022-08-21T00:39:07;100742.06;;;18.88;77.59
17525;BME280;40431;52.198;9.902;2022-08-21T00:41:36;100743.50;;;18.82;76.78
17525;BME280;40431;52.198;9.902;2022-08-21T00:44:03;100733.22;;;18.74;76.46
17525;BME280;40431;52.198;9.902;2022-08-21T00:46:30;100729.78;;;18.72;77.17
17525;BME280;40431;52.198;9.902;2022-08-21T00:48:58;100727.28;;;18.69;77.37
17525;BME280;40431;52.198;9.902;2022-08-21T00:51:28;100732.09;;;18.67;77.67
17525;BME280;40431;52.198;9.902;2022-08-21T00:54:00;100731.63;;;18.62;77.59
17525;BME280;40431;52.198;9.902;2022-08-21T00:56:28;100735.38;;;18.61;77.66
17525;BME280;40431;52.198;9.902;2022-08-21T00:58:55;100737.53;;;18.57;78.60
17525;BME280;40431;52.198;9.902;2022-08-21T01:01:23;100733.06;;;18.56;77.90
17525;BME280;40431;52.198;9.902;2022-08-21T01:03:50;100738.56;;;18.56;77.73
17525;BME280;40431;52.198;9.902;2022-08-21T01:06:18;100734.50;;;18.50;77.25
17525;BME280;40431;52.198;9.902;2022-08-21T01:08:44;100742.28;;;18.45;77.21
17525;BME280;40431;52.198;9.902;2022-08-21T01:11:12;100732.50;;;18.12;77.77
17525;BME280;40431;52.198;9.902;2022-08-21T01:13:39;100728.53;;;17.95;79.16
17525;BME280;40431;52.198;9.902;2022-08-21T01:16:12;100734.25;;;17.92;79.69
17525;BME280;40431;52.198;9.902;2022-08-21T01:18:40;100745.22;;;17.92;80.53
17525;BME280;40431;52.198;9.902;2022-08-21T01:21:10;100741.53;;;17.93;79.83
17525;BME280;40431;52.198;9.902;2022-08-21T01:23:39;100739.38;;;17.96;79.80
17525;BME280;40431;52.198;9.902;2022-08-21T01:26:07;100751.06;;;17.98;79.49
17525;BME280;40431;52.198;9.902;2022-08-21T01:28:37;100751.53;;;18.03;80.86
17525;BME280;40431;52.198;9.902;2022-08-21T01:31:07;100746.66;;;18.07;80.41
17525;BME280;40431;52.198;9.902;2022-08-21T01:33:34;100747.94;;;18.03;79.75
17525;BME280;40431;52.198;9.902;2022-08-21T01:36:01;100747.66;;;18.06;80.60
17525;BME280;40431;52.198;9.902;2022-08-21T01:38:29;100756.03;;;18.05;81.19
17525;BME280;40431;52.198;9.902;2022-08-21T01:40:56;100757.75;;;18.06;82.68
17525;BME280;40431;52.198;9.902;2022-08-21T01:43:22;100752.13;;;18.07;81.11
17525;BME280;40431;52.198;9.902;2022-08-21T01:45:48;100750.06;;;17.99;80.24
17525;BME280;40431;52.198;9.902;2022-08-21T01:48:15;100744.72;;;17.77;80.10
17525;BME280;40431;52.198;9.902;2022-08-21T01:50:41;100750.69;;;17.61;79.94
17525;BME280;40431;52.198;9.902;2022-08-21T01:53:07;100739.25;;;17.56;81.77
17525;BME280;40431;52.198;9.902;2022-08-21T01:55:35;100747.22;;;17.59;81.22
17525;BME280;40431;52.198;9.902;2022-08-21T01:58:02;100737.00;;;17.61;80.81
17525;BME280;40431;52.198;9.902;2022-08-21T02:00:28;100736.66;;;17.54;79.94
17525;BME280;40431;52.198;9.902;2022-08-21T02:02:54;100741.53;;;17.50;80.18
17525;BME280;40431;52.198;9.902;2022-08-21T02:05:21;100748.00;;;17.49;80.90
17525;BME280;40431;52.198;9.902;2022-08-21T02:07:50;100737.47;;;17.45;80.61
17525;BME280;40431;52.198;9.902;2022-08-21T02:10:19;100741.38;;;17.31;81.87
17525;BME280;40431;52.198;9.902;2022-08-21T02:12:47;100742.63;;;17.38;82.84
17525;BME280;40431;52.198;9.902;2022-08-21T02:15:15;100739.59;;;17.41;82.78
17525;BME280;40431;52.198;9.902;2022-08-21T02:17:44;100744.13;;;17.52;83.94
17525;BME280;40431;52.198;9.902;2022-08-21T02:20:15;100732.03;;;17.55;83.75
17525;BME280;40431;52.198;9.902;2022-08-21T02:22:42;100731.78;;;17.58;83.75
17525;BME280;40431;52.198;9.902;2022-08-21T02:25:09;100730.03;;;17.57;84.12
17525;BME280;40431;52.198;9.902;2022-08-21T02:27:38;100730.38;;;17.42;81.21
17525;BME280;40431;52.198;9.902;2022-08-21T02:30:08;100731.84;;;17.25;81.12
17525;BME280;40431;52.198;9.902;2022-08-21T02:32:35;100723.09;;;17.10;81.91
17525;BME280;40431;52.198;9.902;2022-08-21T02:35:02;100721.06;;;17.12;84.42
17525;BME280;40431;52.198;9.902;2022-08-21T02:37:29;100725.31;;;17.16;84.60
17525;BME280;40431;52.198;9.902;2022-08-21T02:39:55;100717.09;;;17.16;84.01
17525;BME280;40431;52.198;9.902;2022-08-21T02:42:21;100723.78;;;17.12;83.87
17525;BME280;40431;52.198;9.902;2022-08-21T02:44:48;100726.09;;;17.07;83.22
17525;BME280;40431;52.198;9.902;2022-08-21T02:47:16;100719.25;;;17.01;83.55
17525;BME280;40431;52.198;9.902;2022-08-21T02:49:42;100716.91;;;16.97;84.46
17525;BME280;40431;52.198;9.902;2022-08-21T02:52:08;100707.81;;;16.96;85.11
17525;BME280;40431;52.198;9.902;2022-08-21T02:54:36;100712.72;;;16.93;84.60
17525;BME280;40431;52.198;9.902;2022-08-21T02:57:03;100712.56;;;16.94;85.41
17525;BME280;40431;52.198;9.902;2022-08-21T02:59:29;100713.44;;;16.95;85.42
17525;BME280;40431;52.198;9.902;2022-08-21T03:01:56;100720.91;;;16.93;85.09
17525;BME280;40431;52.198;9.902;2022-08-21T03:04:24;100715.69;;;16.90;85.23
17525;BME280;40431;52.198;9.902;2022-08-21T03:06:50;100717.81;;;16.86;84.73
17525;BME280;40431;52.198;9.902;2022-08-21T03:09:17;100707.97;;;16.83;85.18
17525;BME280;40431;52.198;9.902;2022-08-21T03:11:43;100712.69;;;16.81;85.16
17525;BME280;40431;52.198;9.902;2022-08-21T03:14:10;100715.44;;;16.81;85.52
17525;BME280;40431;52.198;9.902;2022-08-21T03:16:37;100713.97;;;16.77;85.47
17525;BME280;40431;52.198;9.902;2022-08-21T03:19:03;100714.97;;;16.76;86.13
17525;BME280;40431;52.198;9.902;2022-08-21T03:21:31;100713.97;;;16.77;86.25
17525;BME280;40431;52.198;9.902;2022-08-21T03:23:58;100712.09;;;16.78;86.63
17525;BME280;40431;52.198;9.902;2022-08-21T03:26:24;100714.09;;;16.76;86.50
17525;BME280;40431;52.198;9.902;2022-08-21T03:28:51;100713.97;;;16.77;86.44
17525;BME280;40431;52.198;9.902;2022-08-21T03:31:17;100714.25;;;16.74;86.51
17525;BME280;40431;52.198;9.902;2022-08-21T03:33:44;100707.78;;;16.75;87.86
17525;BME280;40431;52.198;9.902;2022-08-21T03:36:10;100717.69;;;16.76;86.89
17525;BME280;40431;52.198;9.902;2022-08-21T03:38:38;100715.09;;;16.75;86.89
17525;BME280;40431;52.198;9.902;2022-08-21T03:41:05;100716.72;;;16.77;87.80
17525;BME280;40431;52.198;9.902;2022-08-21T03:43:32;100716.84;;;16.76;87.45
17525;BME280;40431;52.198;9.902;2022-08-21T03:46:00;100718.72;;;16.75;87.18
17525;BME280;40431;52.198;9.902;2022-08-21T03:48:26;100713.34;;;16.74;87.42
17525;BME280;40431;52.198;9.902;2022-08-21T03:50:53;100709.25;;;16.79;88.01
17525;BME280;40431;52.198;9.902;2022-08-21T03:53:20;100717.19;;;16.82;87.67
17525;BME280;40431;52.198;9.902;2022-08-21T03:55:49;100718.19;;;16.81;86.99
17525;BME280;40431;52.198;9.902;2022-08-21T03:58:19;100723.66;;;16.81;86.91
17525;BME280;40431;52.198;9.902;2022-08-21T04:00:47;100727.38;;;16.80;87.45
17525;BME280;40431;52.198;9.902;2022-08-21T04:03:14;100731.38;;;16.76;86.88
17525;BME280;40431;52.198;9.902;2022-08-21T04:05:41;100726.69;;;16.67;85.21
17525;BME280;40431;52.198;9.902;2022-08-21T04:08:08;100724.78;;;16.46;86.05
17525;BME280;40431;52.198;9.902;2022-08-21T04:10:37;100726.50;;;16.47;88.24
17525;BME280;40431;52.198;9.902;2022-08-21T04:13:07;100729.47;;;16.56;89.63
17525;BME280;40431;52.198;9.902;2022-08-21T04:15:34;100737.91;;;16.64;89.51
17525;BME280;40431;52.198;9.902;2022-08-21T04:18:00;100738.44;;;16.46;87.29
17525;BME280;40431;52.198;9.902;2022-08-21T04:20:27;100728.91;;;16.29;87.26
17525;BME280;40431;52.198;9.902;2022-08-21T04:22:54;100734.38;;;16.29;89.58
17525;BME280;40431;52.198;9.902;2022-08-21T04:25:22;100744.56;;;16.39;91.12
17525;BME280;40431;52.198;9.902;2022-08-21T04:27:50;100741.69;;;16.40;90.33
17525;BME280;40431;52.198;9.902;2022-08-21T04:30:21;100743.56;;;16.40;89.27
17525;BME280;40431;52.198;9.902;2022-08-21T04:32:49;100746.91;;;16.43;89.62
17525;BME280;40431;52.198;9.902;2022-08-21T04:35:18;100746.66;;;16.46;89.49
17525;BME280;40431;52.198;9.902;2022-08-21T04:37:46;100741.69;;;16.51;90.68
17525;BME280;40431;52.198;9.902;2022-08-21T04:40:14;100744.16;;;16.55;90.33
17525;BME280;40431;52.198;9.902;2022-08-21T04:42:43;100751.09;;;16.59;90.17
17525;BME280;40431;52.198;9.902;2022-08-21T04:45:18;100752.84;;;16.60;89.76
17525;BME280;40431;52.198;9.902;2022-08-21T04:47:48;100751.50;;;16.54;89.13
17525;BME280;40431;52.198;9.902;2022-08-21T04:50:15;100752.88;;;16.48;88.57
17525;BME280;40431;52.198;9.902;2022-08-21T04:52:43;100744.41;;;16.51;89.89
17525;BME280;40431;52.198;9.902;2022-08-21T04:55:10;100749.63;;;16.55;89.86
17525;BME280;40431;52.198;9.902;2022-08-21T04:57:37;100747.50;;;16.58;88.43
17525;BME280;40431;52.198;9.902;2022-08-21T05:00:05;100748.50;;;16.57;88.64
17525;BME280;40431;52.198;9.902;2022-08-21T05:02:33;100758.69;;;16.66;90.10
17525;BME280;40431;52.198;9.902;2022-08-21T05:04:59;100761.28;;;16.68;87.92
17525;BME280;40431;52.198;9.902;2022-08-21T05:07:28;100757.06;;;16.64;86.89
17525;BME280;40431;52.198;9.902;2022-08-21T05:09:55;100747.66;;;16.57;87.19
17525;BME280;40431;52.198;9.902;2022-08-21T05:12:22;100758.81;;;16.53;87.24
17525;BME280;40431;52.198;9.902;2022-08-21T05:14:49;100757.34;;;16.49;88.28
17525;BME280;40431;52.198;9.902;2022-08-21T05:17:15;100759.81;;;16.52;88.97
17525;BME280;40431;52.198;9.902;2022-08-21T05:19:43;100772.75;;;16.62;90.74
17525;BME280;40431;52.198;9.902;2022-08-21T05:22:09;100766.50;;;16.71;90.16
17525;BME280;40431;52.198;9.902;2022-08-21T05:24:35;100766.47;;;16.82;90.74
17525;BME280;40431;52.198;9.902;2022-08-21T05:27:03;100757.84;;;16.87;90.59
17525;BME280;40431;52.198;9.902;2022-08-21T05:29:31;100753.66;;;16.94;89.63
17525;BME280;40431;52.198;9.902;2022-08-21T05:31:58;100753.16;;;17.00;89.28
17525;BME280;40431;52.198;9.902;2022-08-21T05:34:24;100761.34;;;17.00;88.16
17525;BME280;40431;52.198;9.902;2022-08-21T05:36:52;100763.34;;;16.98;87.15
17525;BME280;40431;52.198;9.902;2022-08-21T05:39:18;100750.78;;;16.84;89.01
17525;BME280;40431;52.198;9.902;2022-08-21T05:41:44;100750.28;;;16.91;90.92
17525;BME280;40431;52.198;9.902;2022-08-21T05:44:11;100764.09;;;17.00;91.25
17525;BME280;40431;52.198;9.902;2022-08-21T05:46:37;100762.94;;;17.03;88.84
17525;BME280;40431;52.198;9.902;2022-08-21T05:49:04;100765.94;;;17.00;89.12
17525;BME280;40431;52.198;9.902;2022-08-21T05:51:30;100758.72;;;16.99;89.81
17525;BME280;40431;52.198;9.902;2022-08-21T05:53:58;100758.22;;;17.05;90.94
17525;BME280;40431;52.198;9.902;2022-08-21T05:56:24;100760.91;;;17.16;91.05
17525;BME280;40431;52.198;9.902;2022-08-21T05:58:51;100758.84;;;17.30;90.39
17525;BME280;40431;52.198;9.902;2022-08-21T06:01:17;100769.75;;;17.41;89.98
17525;BME280;40431;52.198;9.902;2022-08-21T06:03:43;100768.41;;;17.57;87.83
17525;BME280;40431;52.198;9.902;2022-08-21T06:06:10;100760.25;;;17.66;88.02
17525;BME280;40431;52.198;9.902;2022-08-21T06:08:36;100758.59;;;17.75;88.52
17525;BME280;40431;52.198;9.902;2022-08-21T06:11:05;100756.03;;;17.83;87.38
17525;BME280;40431;52.198;9.902;2022-08-21T06:13:32;100752.53;;;17.81;86.67
17525;BME280;40431;52.198;9.902;2022-08-21T06:16:04;100758.44;;;17.77;87.80
17525;BME280;40431;52.198;9.902;2022-08-21T06:18:31;100759.28;;;17.77;88.31
17525;BME280;40431;52.198;9.902;2022-08-21T06:20:58;100754.75;;;17.88;88.43
17525;BME280;40431;52.198;9.902;2022-08-21T06:23:24;100757.69;;;17.96;88.56
17525;BME280;40431;52.198;9.902;2022-08-21T06:25:50;100764.38;;;18.03;87.83
17525;BME280;40431;52.198;9.902;2022-08-21T06:28:18;100761.81;;;18.11;87.63
17525;BME280;40431;52.198;9.902;2022-08-21T06:30:45;100759.25;;;18.19;88.33
17525;BME280;40431;52.198;9.902;2022-08-21T06:33:11;100763.06;;;18.28;88.06
17525;BME280;40431;52.198;9.902;2022-08-21T06:35:37;100763.06;;;18.38;86.93
17525;BME280;40431;52.198;9.902;2022-08-21T06:38:04;100764.97;;;18.47;86.21
17525;BME280;40431;52.198;9.902;2022-08-21T06:40:30;100763.28;;;18.56;86.04
17525;BME280;40431;52.198;9.902;2022-08-21T06:43:05;100763.44;;;18.64;85.82
17525;BME280;40431;52.198;9.902;2022-08-21T06:45:33;100770.97;;;18.72;83.81
17525;BME280;40431;52.198;9.902;2022-08-21T06:48:00;100770.38;;;18.68;85.66
17525;BME280;40431;52.198;9.902;2022-08-21T06:50:26;100771.97;;;18.71;86.65
17525;BME280;40431;52.198;9.902;2022-08-21T06:52:58;100763.75;;;18.71;85.54
17525;BME280;40431;52.198;9.902;2022-08-21T06:55:25;100777.78;;;18.78;86.08
17525;BME280;40431;52.198;9.902;2022-08-21T06:57:51;100768.78;;;18.76;86.57
17525;BME280;40431;52.198;9.902;2022-08-21T07:00:18;100771.13;;;18.80;87.01
17525;BME280;40431;52.198;9.902;2022-08-21T07:02:46;100772.13;;;18.79;87.57
17525;BME280;40431;52.198;9.902;2022-08-21T07:05:12;100772.44;;;18.86;88.49
17525;BME280;40431;52.198;9.902;2022-08-21T07:07:38;100770.47;;;18.98;87.62
17525;BME280;40431;52.198;9.902;2022-08-21T07:10:05;100764.66;;;19.01;87.19
17525;BME280;40431;52.198;9.902;2022-08-21T07:12:32;100754.25;;;19.14;85.72
17525;BME280;40431;52.198;9.902;2022-08-21T07:14:58;100747.88;;;19.24;85.10
17525;BME280;40431;52.198;9.902;2022-08-21T07:17:24;100752.53;;;19.23;85.05
17525;BME280;40431;52.198;9.902;2022-08-21T07:19:52;100748.78;;;19.24;85.46
17525;BME280;40431;52.198;9.902;2022-08-21T07:22:19;100743.56;;;19.31;84.60
17525;BME280;40431;52.198;9.902;2022-08-21T07:24:46;100737.06;;;19.32;83.57
17525;BME280;40431;52.198;9.902;2022-08-21T07:27:13;100738.91;;;19.31;83.91
17525;BME280;40431;52.198;9.902;2022-08-21T07:29:39;100732.09;;;19.45;83.01
17525;BME280;40431;52.198;9.902;2022-08-21T07:32:05;100728.59;;;19.63;82.41
17525;BME280;40431;52.198;9.902;2022-08-21T07:34:32;100720.56;;;19.79;80.09
17525;BME280;40431;52.198;9.902;2022-08-21T07:37:00;100730.69;;;19.98;80.04
17525;BME280;40431;52.198;9.902;2022-08-21T07:39:26;100726.41;;;20.14;76.02
17525;BME280;40431;52.198;9.902;2022-08-21T07:41:52;100721.16;;;20.21;75.69
17525;BME280;40431;52.198;9.902;2022-08-21T07:44:19;100725.22;;;20.26;75.96
17525;BME280;40431;52.198;9.902;2022-08-21T07:46:45;100712.06;;;20.38;76.59
17525;BME280;40431;52.198;9.902;2022-08-21T07:49:11;100714.72;;;20.58;75.62
17525;BME280;40431;52.198;9.902;2022-08-21T07:51:38;100718.28;;;20.68;73.77
17525;BME280;40431;52.198;9.902;2022-08-21T07:54:06;100711.38;;;20.82;72.33
17525;BME280;40431;52.198;9.902;2022-08-21T07:56:33;100709.25;;;20.94;70.66
17525;BME280;40431;52.198;9.902;2022-08-21T07:59:00;100710.31;;;20.93;70.21
17525;BME280;40431;52.198;9.902;2022-08-21T08:01:28;100707.53;;;20.93;71.87
17525;BME280;40431;52.198;9.902;2022-08-21T08:03:54;100705.00;;;20.81;72.23
17525;BME280;40431;52.198;9.902;2022-08-21T08:06:21;100705.94;;;20.72;72.60
17525;BME280;40431;52.198;9.902;2022-08-21T08:08:48;100699.72;;;20.70;73.32
17525;BME280;40431;52.198;9.902;2022-08-21T08:11:16;100711.38;;;20.82;70.69
17525;BME280;40431;52.198;9.902;2022-08-21T08:13:45;100708.41;;;20.93;69.95
17525;BME280;40431;52.198;9.902;2022-08-21T08:16:12;100707.44;;;21.02;69.41
17525;BME280;40431;52.198;9.902;2022-08-21T08:18:39;100709.66;;;21.17;69.12
17525;BME280;40431;52.198;9.902;2022-08-21T08:21:07;100694.75;;;21.28;68.66
17525;BME280;40431;52.198;9.902;2022-08-21T08:23:34;100699.28;;;21.37;68.77
17525;BME280;40431;52.198;9.902;2022-08-21T08:26:00;100703.22;;;21.52;68.22
17525;BME280;40431;52.198;9.902;2022-08-21T08:28:29;100695.66;;;21.55;67.36
17525;BME280;40431;52.198;9.902;2022-08-21T08:30:56;100692.63;;;21.66;67.03
17525;BME280;40431;52.198;9.902;2022-08-21T08:33:23;100695.09;;;21.77;68.11
17525;BME280;40431;52.198;9.902;2022-08-21T08:35:50;100701.38;;;21.88;66.51
17525;BME280;40431;52.198;9.902;2022-08-21T08:38:18;100693.47;;;21.93;67.20
17525;BME280;40431;52.198;9.902;2022-08-21T08:40:49;100688.53;;;22.05;67.33
17525;BME280;40431;52.198;9.902;2022-08-21T08:43:18;100696.47;;;22.08;66.38
17525;BME280;40431;52.198;9.902;2022-08-21T08:45:49;100690.28;;;22.14;66.37
17525;BME280;40431;52.198;9.902;2022-08-21T08:48:29;100684.63;;;22.24;66.29
17525;BME280;40431;52.198;9.902;2022-08-21T08:50:59;100687.56;;;22.30;65.91
17525;BME280;40431;52.198;9.902;2022-08-21T08:53:30;100686.78;;;22.38;64.83
17525;BME280;40431;52.198;9.902;2022-08-21T08:56:00;100689.03;;;22.43;63.58
17525;BME280;40431;52.198;9.902;2022-08-21T08:58:30;100681.59;;;22.35;63.63
17525;BME280;40431;52.198;9.902;2022-08-21T09:00:59;100672.31;;;22.44;62.85
17525;BME280;40431;52.198;9.902;2022-08-21T09:03:26;100672.81;;;22.56;62.20
17525;BME280;40431;52.198;9.902;2022-08-21T09:05:57;100671.97;;;22.56;59.89
17525;BME280;40431;52.198;9.902;2022-08-21T09:08:38;100666.09;;;22.59;59.74
17525;BME280;40431;52.198;9.902;2022-08-21T09:11:13;100671.97;;;22.72;59.26
17525;BME280;40431;52.198;9.902;2022-08-21T09:13:50;100670.28;;;22.88;60.95
17525;BME280;40431;52.198;9.902;2022-08-21T09:16:24;100679.63;;;23.03;59.24
17525;BME280;40431;52.198;9.902;2022-08-21T09:19:01;100656.81;;;23.09;55.90
17525;BME280;40431;52.198;9.902;2022-08-21T09:21:38;100659.44;;;23.19;55.79
17525;BME280;40431;52.198;9.902;2022-08-21T09:24:22;100663.06;;;23.20;55.83
17525;BME280;40431;52.198;9.902;2022-08-21T09:26:57;100657.84;;;23.33;55.74
17525;BME280;40431;52.198;9.902;2022-08-21T09:29:30;100657.50;;;23.44;54.88
17525;BME280;40431;52.198;9.902;2022-08-21T09:31:59;100654.72;;;23.52;54.19
17525;BME280;40431;52.198;9.902;2022-08-21T09:34:27;100662.34;;;23.42;54.13
17525;BME280;40431;52.198;9.902;2022-08-21T09:36:55;100653.88;;;23.35;54.37
17525;BME280;40431;52.198;9.902;2022-08-21T09:39:26;100659.06;;;23.30;55.51
17525;BME280;40431;52.198;9.902;2022-08-21T09:41:57;100651.78;;;23.46;56.69
17525;BME280;40431;52.198;9.902;2022-08-21T09:44:26;100658.16;;;23.63;55.34
17525;BME280;40431;52.198;9.902;2022-08-21T09:46:54;100657.78;;;23.66;53.48
17525;BME280;40431;52.198;9.902;2022-08-21T09:49:30;100649.13;;;23.69;53.06
17525;BME280;40431;52.198;9.902;2022-08-21T09:51:57;100652.94;;;23.76;52.58
17525;BME280;40431;52.198;9.902;2022-08-21T09:54:28;100644.25;;;23.79;52.94
17525;BME280;40431;52.198;9.902;2022-08-21T09:56:58;100647.72;;;23.90;52.57
17525;BME280;40431;52.198;9.902;2022-08-21T09:59:43;100647.22;;;23.78;51.97
17525;BME280;40431;52.198;9.902;2022-08-21T10:02:23;100646.69;;;23.91;53.82
17525;BME280;40431;52.198;9.902;2022-08-21T10:04:54;100649.28;;;23.92;51.88
17525;BME280;40431;52.198;9.902;2022-08-21T10:07:23;100652.84;;;24.09;52.10
17525;BME280;40431;52.198;9.902;2022-08-21T10:09:59;100642.97;;;24.07;51.13
17525;BME280;40431;52.198;9.902;2022-08-21T10:12:31;100634.03;;;23.88;49.90
17525;BME280;40431;52.198;9.902;2022-08-21T10:15:05;100644.63;;;23.76;50.06
17525;BME280;40431;52.198;9.902;2022-08-21T10:17:42;100636.97;;;23.87;49.85
17525;BME280;40431;52.198;9.902;2022-08-21T10:20:19;100626.69;;;24.04;50.12
17525;BME280;40431;52.198;9.902;2022-08-21T10:22:55;100632.06;;;24.05;49.21
17525;BME280;40431;52.198;9.902;2022-08-21T10:25:31;100635.16;;;24.10;49.70
17525;BME280;40431;52.198;9.902;2022-08-21T10:28:02;100623.72;;;24.13;48.91
17525;BME280;40431;52.198;9.902;2022-08-21T10:30:38;100638.53;;;24.29;49.51
17525;BME280;40431;52.198;9.902;2022-08-21T10:33:23;100628.00;;;24.47;49.81
17525;BME280;40431;52.198;9.902;2022-08-21T10:36:03;100631.66;;;24.48;48.07
17525;BME280;40431;52.198;9.902;2022-08-21T10:38:49;100624.72;;;24.52;48.94
17525;BME280;40431;52.198;9.902;2022-08-21T10:41:28;100611.78;;;24.67;50.16
17525;BME280;40431;52.198;9.902;2022-08-21T10:44:08;100613.88;;;24.89;47.40
17525;BME280;40431;52.198;9.902;2022-08-21T10:46:47;100618.91;;;25.08;47.23
17525;BME280;40431;52.198;9.902;2022-08-21T10:49:22;100607.44;;;25.11;47.65
17525;BME280;40431;52.198;9.902;2022-08-21T10:52:07;100622.00;;;25.13;49.32
17525;BME280;40431;52.198;9.902;2022-08-21T10:54:41;100611.50;;;25.24;49.26
17525;BME280;40431;52.198;9.902;2022-08-21T10:57:17;100612.69;;;25.44;48.87
17525;BME280;40431;52.198;9.902;2022-08-21T10:59:49;100608.75;;;25.54;47.98
17525;BME280;40431;52.198;9.902;2022-08-21T11:02:21;100606.78;;;25.62;47.51
17525;BME280;40431;52.198;9.902;2022-08-21T11:04:54;100608.59;;;25.70;47.58
17525;BME280;40431;52.198;9.902;2022-08-21T11:07:26;100604.66;;;25.64;46.44
17525;BME280;40431;52.198;9.902;2022-08-21T11:09:58;100611.47;;;25.77;46.50
17525;BME280;40431;52.198;9.902;2022-08-21T11:12:31;100612.19;;;26.00;47.38
17525;BME280;40431;52.198;9.902;2022-08-21T11:15:04;100607.44;;;26.31;46.78
17525;BME280;40431;52.198;9.902;2022-08-21T11:17:37;100611.06;;;26.46;44.43
17525;BME280;40431;52.198;9.902;2022-08-21T11:20:09;100607.44;;;26.31;43.96
17525;BME280;40431;52.198;9.902;2022-08-21T11:22:43;100601.63;;;26.26;43.95
17525;BME280;40431;52.198;9.902;2022-08-21T11:25:16;100599.06;;;26.09;43.54
17525;BME280;40431;52.198;9.902;2022-08-21T11:27:48;100610.47;;;26.14;44.22
17525;BME280;40431;52.198;9.902;2022-08-21T11:30:15;100601.38;;;26.06;44.61
17525;BME280;40431;52.198;9.902;2022-08-21T11:32:55;100607.63;;;25.93;45.34
17525;BME280;40431;52.198;9.902;2022-08-21T11:35:32;100597.50;;;25.70;45.09
17525;BME280;40431;52.198;9.902;2022-08-21T11:38:12;100597.97;;;25.44;45.74
17525;BME280;40431;52.198;9.902;2022-08-21T11:40:52;100602.47;;;25.45;46.04
17525;BME280;40431;52.198;9.902;2022-08-21T11:43:28;100599.19;;;25.56;46.07
17525;BME280;40431;52.198;9.902;2022-08-21T11:46:03;100595.75;;;25.69;44.30
17525;BME280;40431;52.198;9.902;2022-08-21T11:48:37;100596.91;;;25.60;43.45
17525;BME280;40431;52.198;9.902;2022-08-21T11:51:10;100596.41;;;25.41;43.35
17525;BME280;40431;52.198;9.902;2022-08-21T11:53:46;100594.25;;;25.28;43.82
17525;BME280;40431;52.198;9.902;2022-08-21T11:56:20;100590.44;;;25.29;43.33
17525;BME280;40431;52.198;9.902;2022-08-21T11:58:51;100600.84;;;25.50;44.70
17525;BME280;40431;52.198;9.902;2022-08-21T12:01:23;100599.19;;;25.71;41.97
17525;BME280;40431;52.198;9.902;2022-08-21T12:03:54;100593.81;;;25.84;42.18
17525;BME280;40431;52.198;9.902;2022-08-21T12:06:29;100590.34;;;26.12;42.60
17525;BME280;40431;52.198;9.902;2022-08-21T12:09:00;100589.91;;;26.30;43.05
17525;BME280;40431;52.198;9.902;2022-08-21T12:11:28;100594.44;;;26.16;40.98
17525;BME280;40431;52.198;9.902;2022-08-21T12:13:58;100591.22;;;26.13;41.64
17525;BME280;40431;52.198;9.902;2022-08-21T12:16:30;100592.22;;;26.27;41.61
17525;BME280;40431;52.198;9.902;2022-08-21T12:19:05;100601.88;;;26.31;41.85
17525;BME280;40431;52.198;9.902;2022-08-21T12:21:32;100592.78;;;26.37;41.73
17525;BME280;40431;52.198;9.902;2022-08-21T12:24:04;100584.97;;;26.47;41.96
17525;BME280;40431;52.198;9.902;2022-08-21T12:26:33;100580.34;;;26.55;40.60
17525;BME280;40431;52.198;9.902;2022-08-21T12:29:07;100587.38;;;26.72;41.12
17525;BME280;40431;52.198;9.902;2022-08-21T12:31:48;100575.72;;;26.83;41.71
17525;BME280;40431;52.198;9.902;2022-08-21T12:34:15;100568.53;;;26.96;40.36
17525;BME280;40431;52.198;9.902;2022-08-21T12:36:44;100577.81;;;27.03;39.98
17525;BME280;40431;52.198;9.902;2022-08-21T12:39:15;100576.19;;;27.15;40.40
17525;BME280;40431;52.198;9.902;2022-08-21T12:41:49;100571.44;;;27.09;41.06
17525;BME280;40431;52.198;9.902;2022-08-21T12:44:21;100579.09;;;27.00;42.08
17525;BME280;40431;52.198;9.902;2022-08-21T12:46:51;100573.16;;;27.10;41.58
17525;BME280;40431;52.198;9.902;2022-08-21T12:49:23;100569.84;;;27.22;42.18
17525;BME280;40431;52.198;9.902;2022-08-21T12:51:54;100575.78;;;27.19;40.90
17525;BME280;40431;52.198;9.902;2022-08-21T12:54:26;100564.94;;;27.30;41.76
17525;BME280;40431;52.198;9.902;2022-08-21T12:56:57;100562.25;;;27.37;41.32
17525;BME280;40431;52.198;9.902;2022-08-21T12:59:24;100567.13;;;27.35;41.24
17525;BME280;40431;52.198;9.902;2022-08-21T13:01:52;100560.25;;;27.31;40.23